MUC | München Airways

 METAR UND TAF INFORMATION

METAR FOR LFRS
ADDS - METARS form results

(0553 UTC 24 May 2019)
Data provider http://aviationweather.gov/metar/data/
 
METAR text: LFRS 240530Z AUTO 01004KT 340V040 CAVOK 12/10 Q1018 NOSIG
Conditions at: LFRS (NANTES/CHATEAU B, FR) observed 0530 UTC 24 May 2019
Temperature: 12.0°C (54°F)
Dewpoint: 10.0°C (50°F) [RH = 88%]
Pressure (altimeter): 30.06 inches Hg (1018.0 mb)
Winds: from the N (10 degrees) at 5 MPH (4 knots; 2.1 m/s)
Visibility: 6 or more miles (10+ km)
Ceiling: ceiling and visibility are OK
Clouds: unknown
Weather: no significant weather observed at this time

METAR text: LFRS 240500Z AUTO 36005KT 330V050 CAVOK 11/10 Q1017 NOSIG
Conditions at: LFRS (NANTES/CHATEAU B, FR) observed 0500 UTC 24 May 2019
Temperature: 11.0°C (52°F)
Dewpoint: 10.0°C (50°F) [RH = 94%]
Pressure (altimeter): 30.03 inches Hg (1017.0 mb)
Winds: from the N (360 degrees) at 6 MPH (5 knots; 2.6 m/s)
Visibility: 6 or more miles (10+ km)
Ceiling: ceiling and visibility are OK
Clouds: unknown
Weather: no significant weather observed at this time

Forecast for: LFRS (NANTES/CHATEAU B, FR)
Text: TAF LFRS 240500Z 2406/2512 36008KT CAVOK
Forecast period: 0600 UTC 24 May 2019 to 1200 UTC 25 May 2019
Forecast type: FROM: standard forecast or significant change
Winds: from the N (360 degrees) at 9 MPH (8 knots; 4.1 m/s)
Visibility: 6 or more miles 10+ km)
Ceiling: unknown
Clouds: missing
Weather: NSW  (no significant weather)
Text: PROB30
Forecast period: 0500 to 0700 UTC 25 May 2019
Forecast type: TEMPORARY: The following changes expected for less than half the time period
Visibility: missing
Ceiling: 500 feet AGL
Clouds: broken clouds at 500 feet AGL
Weather: no significant weather forecast for this period

 FLUGHAFENKARTE

 RUNWAY INFORMATION
Runway 03 Runway length 9514 ft Runway width 148 ft
Runway elevation 73 ft Runway displaced threshold 0 ft Runway heading 28
Runway 21 Runway length 9514 ft Runway width 148 ft
Runway elevation 86 ft Runway displaced threshold 694 ft Runway heading 208

 AIRPORT FREQUENCIES
Type APP Name APP Frequency 130.275 MHZ
Type ATIS Name ATIS Frequency 126.925 MHZ
Type GND Name GND Frequency 121.875 MHZ
Type INFO Name INFO Frequency 129.875 MHZ
Type TWR Name TWR Frequency 118.65 MHZ

 AIRPORT NEAR NAVIGATION AIDS
Type NDB Name Nantes Frequency 369 KHZ
Type VOR-DME Name Nantes Frequency 115500 KHZ